Terminal Aerodrome Forecast
Issued by NWS Norman, OK

Home | Current Version | Previous Version | Text Only | Print | Product List | Glossary On
Versions: 1 2 3 4 5 6 7 8 9 10 11 12 13 14 15 16 17 18 19 20 21 22 23 24
000
FTUS44 KOUN 051120
TAFSPS
TAF
KSPS 051120Z 0512/0612 14012KT P6SM FEW060 OVC100
     FM051700 15014G21KT P6SM FEW030 OVC060
      TEMPO 0518/0520 6SM -RA OVC040
     FM052000 15016G24KT 4SM -TSRA SCT020 BKN030CB
     FM060200 15015G20KT 6SM BR SCT010 OVC025
      TEMPO 0605/0609 5SM -RA BR OVC009=

USA.gov is the U.S. government's official web portal to all federal, state and local government web resources and services.